ADDS METAR Data

Data at: 1824 UTC 20 Jul 2018

METAR for:KLWM (Lawrence Muni, MA, US)
Text:KLWM 201754Z COR 11008KT 10SM CLR 30/14 A3017 RMK AO2 SLP215 T03000139 10311 20206 58009
Temperature: 30.0°C ( 86°F)
Dewpoint: 13.9°C ( 57°F) [RH = 37%]
Pressure (altimeter):30.17 inches Hg (1021.8 mb) [Sea level pressure: 1021.5 mb]
Winds:from the ESE (110 degrees) at 9 MPH (8 knots; 4.1 m/s)
Visibility:10 or more sm (16+ km)
Ceiling:at least 12,000 feet AGL
Clouds:sky clear below 12,000 feet AGL